Time;durP1;ratioP1;P1;durP2;ratioP2;P2;SDS_P1;SDS_P2;PMS_P1;PMS_P2;Temp;Humidity;BMP_temperature;BMP_pressure;BME280_temperature;BME280_humidity;BME280_pressure;Samples;Min_cycle;Max_cycle;Signal;HPM_P1;HPM_P2
2023/09/08 00:02:12;;;;;;;250.47;239.37;;;16.00;99.90;;;;;;5033012;28;20580;-72
2023/09/08 00:04:39;;;;;;;268.43;256.03;;;15.90;99.90;;;;;;5032635;28;20447;-72
2023/09/08 00:07:08;;;;;;;271.40;259.10;;;15.80;99.90;;;;;;5032493;28;20557;-72
2023/09/08 00:09:35;;;;;;;286.73;273.43;;;15.80;99.90;;;;;;5032088;28;20549;-72
2023/09/08 00:12:03;;;;;;;271.53;259.00;;;15.80;99.90;;;;;;5032747;28;20879;-72
2023/09/08 00:14:30;;;;;;;297.53;283.37;;;15.80;99.90;;;;;;5032575;28;20478;-72
2023/09/08 00:16:57;;;;;;;287.70;274.03;;;15.90;99.90;;;;;;5032332;28;20573;-71
2023/09/08 00:19:24;;;;;;;277.60;264.73;;;15.90;99.90;;;;;;5032177;28;20448;-72
2023/09/08 00:21:51;;;;;;;280.93;268.00;;;15.90;99.90;;;;;;5031719;28;20528;-72
2023/09/08 00:24:19;;;;;;;290.47;276.60;;;15.90;99.90;;;;;;5032517;28;20812;-72
2023/09/08 00:26:46;;;;;;;267.10;255.03;;;15.90;99.90;;;;;;5032597;28;20445;-72
2023/09/08 00:29:14;;;;;;;257.83;246.43;;;15.90;99.90;;;;;;5032192;28;20649;-72
2023/09/08 00:31:41;;;;;;;260.33;249.03;;;15.80;99.90;;;;;;5032372;28;20528;-72
2023/09/08 00:34:08;;;;;;;267.07;255.17;;;15.70;99.90;;;;;;5032161;28;20488;-72
2023/09/08 00:36:35;;;;;;;288.87;276.00;;;15.60;99.90;;;;;;5032114;28;20452;-72
2023/09/08 00:39:01;;;;;;;282.17;269.40;;;15.70;99.90;;;;;;5032002;28;20956;-72
2023/09/08 00:41:28;;;;;;;284.60;271.83;;;15.60;99.90;;;;;;5032615;28;20820;-72
2023/09/08 00:43:55;;;;;;;277.03;264.53;;;15.60;99.90;;;;;;5032235;28;20887;-72
2023/09/08 00:46:24;;;;;;;273.70;261.40;;;15.60;99.90;;;;;;5032053;28;20539;-72
2023/09/08 00:48:51;;;;;;;300.17;286.00;;;15.50;99.90;;;;;;5031715;28;20461;-72
2023/09/08 00:51:19;;;;;;;296.10;282.20;;;15.50;99.90;;;;;;5032259;28;20541;-72
2023/09/08 00:53:46;;;;;;;342.33;326.03;;;15.40;99.90;;;;;;5032241;28;20544;-72
2023/09/08 00:56:13;;;;;;;410.73;389.63;;;15.30;99.90;;;;;;5031838;28;20488;-72
2023/09/08 00:58:40;;;;;;;391.10;371.90;;;15.30;99.90;;;;;;5031925;28;20819;-72
2023/09/08 01:01:07;;;;;;;351.57;334.43;;;15.30;99.90;;;;;;5031884;28;20450;-72
2023/09/08 01:03:37;;;;;;;367.20;348.97;;;15.20;99.90;;;;;;5031877;28;20452;-72
2023/09/08 01:06:05;;;;;;;362.93;345.40;;;15.20;99.90;;;;;;5031937;28;20485;-72
2023/09/08 01:08:32;;;;;;;375.83;357.53;;;15.20;99.90;;;;;;5031838;28;20485;-72
2023/09/08 01:10:59;;;;;;;520.50;491.20;;;15.20;99.90;;;;;;5031786;28;20472;-71
2023/09/08 01:13:26;;;;;;;531.63;500.57;;;15.20;99.90;;;;;;5031867;28;20469;-71
2023/09/08 01:15:53;;;;;;;489.87;463.17;;;15.20;99.90;;;;;;5031627;28;20564;-71
2023/09/08 01:18:20;;;;;;;474.13;448.63;;;15.30;99.90;;;;;;5032069;28;21010;-72
2023/09/08 01:21:16;;;;;;;468.13;442.83;;;15.30;99.90;;;;;;5031807;28;20960;-72
2023/09/08 01:24:03;;;;;;;438.90;416.60;;;15.40;99.90;;;;;;5028854;28;20530;-72
2023/09/08 01:26:36;;;;;;;458.87;435.53;;;15.40;99.90;;;;;;5031711;28;20825;-72
2023/09/08 01:29:06;;;;;;;445.33;423.13;;;15.40;99.90;;;;;;5031760;28;20891;-72
2023/09/08 01:31:33;;;;;;;448.17;425.63;;;15.40;99.90;;;;;;5031826;28;20453;-71
2023/09/08 01:34:01;;;;;;;418.60;398.73;;;15.40;99.90;;;;;;5034898;28;20789;-71
2023/09/08 01:36:28;;;;;;;447.80;425.27;;;15.40;99.90;;;;;;5035333;28;20567;-70
2023/09/08 01:38:55;;;;;;;443.23;421.00;;;15.50;99.90;;;;;;5034982;28;20536;-71
2023/09/08 01:41:22;;;;;;;462.70;438.80;;;15.50;99.90;;;;;;5035516;28;20453;-70
2023/09/08 01:43:50;;;;;;;484.23;458.07;;;15.50;99.90;;;;;;5035341;28;20882;-71
2023/09/08 01:46:17;;;;;;;499.47;471.87;;;15.50;99.90;;;;;;5035332;28;20450;-71
2023/09/08 01:48:44;;;;;;;493.20;466.80;;;15.50;99.90;;;;;;5034909;28;20540;-71
2023/09/08 01:51:11;;;;;;;500.83;473.93;;;15.50;99.90;;;;;;5035094;28;20932;-71
2023/09/08 01:53:38;;;;;;;504.30;477.00;;;15.50;99.90;;;;;;5034882;28;20534;-71
2023/09/08 01:56:05;;;;;;;484.03;458.43;;;15.60;99.90;;;;;;5034878;28;21097;-71
2023/09/08 01:58:33;;;;;;;499.20;472.30;;;15.50;99.90;;;;;;5034900;28;20544;-71
2023/09/08 02:01:05;;;;;;;480.53;454.93;;;15.50;99.90;;;;;;5034861;28;20962;-72
2023/09/08 02:03:32;;;;;;;504.57;477.20;;;15.50;99.90;;;;;;5034963;28;20877;-72
2023/09/08 02:05:59;;;;;;;547.60;517.40;;;15.50;99.90;;;;;;5034611;28;20455;-71
2023/09/08 02:08:26;;;;;;;564.93;533.70;;;15.50;99.90;;;;;;5034729;28;20456;-71
2023/09/08 02:10:52;;;;;;;533.90;504.53;;;15.60;99.90;;;;;;5034802;28;20462;-71
2023/09/08 02:13:19;;;;;;;533.57;505.07;;;15.60;99.90;;;;;;5034731;28;20533;-71
2023/09/08 02:15:46;;;;;;;485.53;460.20;;;15.70;99.90;;;;;;5034533;28;20572;-71
2023/09/08 02:18:15;;;;;;;474.40;450.00;;;15.70;99.90;;;;;;5034343;28;20531;-71
2023/09/08 02:20:42;;;;;;;492.93;467.03;;;15.70;99.90;;;;;;5034464;28;20540;-71
2023/09/08 02:23:09;;;;;;;466.57;442.87;;;15.70;99.90;;;;;;5034494;28;20485;-72
2023/09/08 02:25:36;;;;;;;448.77;425.87;;;15.60;99.90;;;;;;5034598;28;20528;-72
2023/09/08 02:28:03;;;;;;;480.53;455.20;;;15.60;99.90;;;;;;5034225;28;20484;-71
2023/09/08 02:30:30;;;;;;;479.90;454.97;;;15.60;99.90;;;;;;5034617;28;20477;-71
2023/09/08 02:32:57;;;;;;;507.00;480.00;;;15.70;99.90;;;;;;5034202;28;20969;-71
2023/09/08 02:35:25;;;;;;;466.20;442.20;;;15.70;99.90;;;;;;5034331;28;20587;-71
2023/09/08 02:37:52;;;;;;;476.97;452.63;;;15.70;99.90;;;;;;5034303;28;20478;-71
2023/09/08 02:40:20;;;;;;;504.20;477.67;;;15.60;99.90;;;;;;5034238;28;20466;-71
2023/09/08 02:42:47;;;;;;;470.63;446.73;;;15.60;99.90;;;;;;5034276;28;20536;-71
2023/09/08 02:45:14;;;;;;;486.00;460.80;;;15.60;99.90;;;;;;5033777;28;20821;-71
2023/09/08 02:47:41;;;;;;;533.73;505.00;;;15.60;99.90;;;;;;5033872;28;20457;-71
2023/09/08 02:50:08;;;;;;;531.90;503.03;;;15.60;99.90;;;;;;5033676;28;20519;-71
2023/09/08 02:52:36;;;;;;;503.93;477.47;;;15.60;99.90;;;;;;5034238;28;20482;-71
2023/09/08 02:55:04;;;;;;;495.67;469.17;;;15.60;99.90;;;;;;5033946;28;20474;-71
2023/09/08 02:57:31;;;;;;;500.40;474.50;;;15.60;99.90;;;;;;5033914;28;20457;-71
2023/09/08 02:59:57;;;;;;;486.97;461.73;;;15.60;99.90;;;;;;5033467;28;20539;-71
2023/09/08 03:02:26;;;;;;;497.00;471.00;;;15.60;99.90;;;;;;5033417;28;20446;-71
2023/09/08 03:04:53;;;;;;;524.03;496.63;;;15.60;99.90;;;;;;5033913;28;20832;-71
2023/09/08 03:07:20;;;;;;;516.10;488.93;;;15.60;99.90;;;;;;5033559;28;20961;-71
2023/09/08 03:09:48;;;;;;;505.27;478.60;;;15.50;99.90;;;;;;5033421;28;20464;-71
2023/09/08 03:12:15;;;;;;;450.67;428.17;;;15.50;99.90;;;;;;5033710;28;20480;-72
2023/09/08 03:14:42;;;;;;;432.93;412.13;;;15.30;99.90;;;;;;5033417;28;20448;-72
2023/09/08 03:17:09;;;;;;;446.93;425.43;;;15.10;99.90;;;;;;5033688;28;20454;-72
2023/09/08 03:19:36;;;;;;;471.30;448.00;;;15.00;99.90;;;;;;5033164;28;20456;-72
2023/09/08 03:22:03;;;;;;;490.67;465.70;;;14.90;99.90;;;;;;5033348;28;20540;-72
2023/09/08 03:24:30;;;;;;;532.20;503.57;;;14.80;99.90;;;;;;5033611;28;20857;-72
2023/09/08 03:26:58;;;;;;;567.30;535.97;;;14.80;99.90;;;;;;5033421;28;20474;-72
2023/09/08 03:29:25;;;;;;;570.57;538.67;;;14.80;99.90;;;;;;5032986;28;20454;-72
2023/09/08 03:31:52;;;;;;;590.97;556.97;;;14.80;99.90;;;;;;5033155;28;20936;-72
2023/09/08 03:34:20;;;;;;;669.67;630.03;;;14.70;99.90;;;;;;5033496;28;21014;-72
2023/09/08 03:36:47;;;;;;;721.67;679.07;;;14.80;99.90;;;;;;5032995;28;20476;-71
2023/09/08 03:39:14;;;;;;;754.57;708.90;;;14.80;99.90;;;;;;5032781;28;20983;-71
2023/09/08 03:41:41;;;;;;;741.73;697.93;;;14.80;99.90;;;;;;5033036;28;20484;-72
2023/09/08 03:44:09;;;;;;;779.80;734.20;;;14.80;99.90;;;;;;5033041;28;20532;-72
2023/09/08 03:46:37;;;;;;;738.10;695.47;;;14.90;99.90;;;;;;5032807;28;20480;-72
2023/09/08 03:49:04;;;;;;;678.63;640.43;;;14.80;99.90;;;;;;5032601;28;20448;-72
2023/09/08 03:51:31;;;;;;;665.97;628.57;;;14.80;99.90;;;;;;5033033;28;20490;-72
2023/09/08 03:53:58;;;;;;;652.70;616.40;;;14.70;99.90;;;;;;5032966;28;20514;-72
2023/09/08 03:56:25;;;;;;;645.00;609.13;;;14.70;99.90;;;;;;5031858;28;20566;-72
2023/09/08 03:58:52;;;;;;;624.03;589.67;;;14.60;99.90;;;;;;5032593;28;20959;-72
2023/09/08 04:01:21;;;;;;;637.17;601.33;;;14.50;99.90;;;;;;5032825;28;20486;-72
2023/09/08 04:03:47;;;;;;;639.67;602.53;;;14.50;99.90;;;;;;5032824;28;20455;-72
2023/09/08 04:06:14;;;;;;;645.47;608.27;;;14.50;99.90;;;;;;5032571;28;20448;-72
2023/09/08 04:08:41;;;;;;;692.23;649.87;;;14.40;99.90;;;;;;5032397;28;20487;-72
2023/09/08 04:11:08;;;;;;;721.80;676.50;;;14.40;99.90;;;;;;5032532;28;20484;-72
2023/09/08 04:13:35;;;;;;;739.63;694.03;;;14.40;99.90;;;;;;5032594;28;20473;-72
2023/09/08 04:16:02;;;;;;;776.33;728.13;;;14.30;99.90;;;;;;5032265;28;21074;-72
2023/09/08 04:18:31;;;;;;;767.07;719.60;;;14.30;99.90;;;;;;5032466;28;20453;-72
2023/09/08 04:20:57;;;;;;;750.13;703.03;;;14.30;99.90;;;;;;5032580;28;20448;-72
2023/09/08 04:23:24;;;;;;;755.87;709.27;;;14.40;99.90;;;;;;5032983;28;20854;-72
2023/09/08 04:25:51;;;;;;;742.90;698.40;;;14.40;99.90;;;;;;5032363;28;20514;-72
2023/09/08 04:28:18;;;;;;;736.70;692.60;;;14.40;99.90;;;;;;5031962;28;20536;-72
2023/09/08 04:30:45;;;;;;;731.70;686.57;;;14.30;99.90;;;;;;5032495;28;20452;-72
2023/09/08 04:33:12;;;;;;;738.97;694.07;;;14.30;99.90;;;;;;5032424;28;20539;-72
2023/09/08 04:35:40;;;;;;;751.73;705.20;;;14.30;99.90;;;;;;5032390;28;20472;-72
2023/09/08 04:38:07;;;;;;;748.97;703.77;;;14.30;99.90;;;;;;5031855;28;20454;-72
2023/09/08 04:40:34;;;;;;;723.87;680.80;;;14.20;99.90;;;;;;5032218;28;20448;-72
2023/09/08 04:43:01;;;;;;;714.37;673.13;;;14.20;99.90;;;;;;5032030;28;20527;-72
2023/09/08 04:45:28;;;;;;;722.60;680.70;;;14.10;99.90;;;;;;5032387;28;20484;-72
2023/09/08 04:47:55;;;;;;;707.27;665.90;;;14.10;99.90;;;;;;5032060;28;20456;-72
2023/09/08 04:50:22;;;;;;;696.13;656.10;;;14.10;99.90;;;;;;5031745;28;20880;-72
2023/09/08 04:52:50;;;;;;;707.60;665.83;;;14.00;99.90;;;;;;5032226;28;20447;-72
2023/09/08 04:55:19;;;;;;;726.23;683.97;;;13.90;99.90;;;;;;5031999;28;20506;-72
2023/09/08 04:57:46;;;;;;;734.37;690.57;;;14.00;99.90;;;;;;5032066;28;20767;-72
2023/09/08 05:00:14;;;;;;;780.97;732.80;;;13.90;99.90;;;;;;5032001;28;20511;-72
2023/09/08 05:02:41;;;;;;;794.23;744.27;;;14.00;99.90;;;;;;5031991;28;20818;-72
2023/09/08 05:05:08;;;;;;;799.63;750.17;;;14.00;99.90;;;;;;5032098;28;20811;-72
2023/09/08 05:07:35;;;;;;;778.03;728.93;;;14.10;99.90;;;;;;5032873;28;20450;-73
2023/09/08 05:10:04;;;;;;;788.63;739.77;;;14.10;99.90;;;;;;5035778;28;20466;-71
2023/09/08 05:12:31;;;;;;;768.13;720.00;;;14.20;99.90;;;;;;5036181;28;20448;-73
2023/09/08 05:15:05;;;;;;;741.43;694.93;;;14.20;99.90;;;;;;5035999;28;20475;-73
2023/09/08 05:17:32;;;;;;;759.63;713.33;;;14.20;99.90;;;;;;5035922;28;20514;-73
2023/09/08 05:19:59;;;;;;;757.63;710.83;;;14.20;99.90;;;;;;5035574;28;20448;-73
2023/09/08 05:22:26;;;;;;;764.53;717.30;;;14.20;99.90;;;;;;5035656;28;20447;-73
2023/09/08 05:24:53;;;;;;;759.80;713.97;;;14.30;99.90;;;;;;5035721;28;20456;-73
2023/09/08 05:27:21;;;;;;;747.57;701.83;;;14.30;99.90;;;;;;5035915;28;20527;-73
2023/09/08 05:29:48;;;;;;;734.77;690.33;;;14.30;99.90;;;;;;5035361;28;20452;-73
2023/09/08 05:32:15;;;;;;;738.73;693.93;;;14.40;99.90;;;;;;5035545;28;20796;-73
2023/09/08 05:34:43;;;;;;;740.07;695.83;;;14.50;99.90;;;;;;5035731;28;20530;-73
2023/09/08 05:37:10;;;;;;;732.50;688.20;;;14.60;99.90;;;;;;5035392;28;20549;-73
2023/09/08 05:39:36;;;;;;;719.70;675.80;;;14.60;99.90;;;;;;5035351;28;20789;-73
2023/09/08 05:42:04;;;;;;;720.17;676.37;;;14.70;99.90;;;;;;5035217;28;20510;-73
2023/09/08 05:44:32;;;;;;;695.10;652.90;;;14.80;99.90;;;;;;5035328;28;20535;-73
2023/09/08 05:46:59;;;;;;;676.47;635.57;;;14.80;99.90;;;;;;5035058;28;20455;-72
2023/09/08 05:49:26;;;;;;;662.87;623.23;;;15.00;99.90;;;;;;5034942;28;20992;-72
2023/09/08 05:51:53;;;;;;;649.97;611.57;;;15.10;99.90;;;;;;5034996;28;20502;-73
2023/09/08 05:54:20;;;;;;;637.37;600.83;;;15.20;99.90;;;;;;5035297;28;20448;-73
2023/09/08 05:56:47;;;;;;;610.70;575.97;;;15.30;99.90;;;;;;5034909;28;20486;-73
2023/09/08 05:59:14;;;;;;;581.60;549.13;;;15.40;99.90;;;;;;5034833;28;20555;-73
2023/09/08 06:01:42;;;;;;;561.80;530.70;;;15.50;99.90;;;;;;5035030;28;20540;-72
2023/09/08 06:04:10;;;;;;;527.13;498.83;;;15.70;99.90;;;;;;5034900;28;20456;-73
2023/09/08 06:06:37;;;;;;;515.53;487.77;;;15.70;99.90;;;;;;5035029;28;20518;-72
2023/09/08 06:09:06;;;;;;;484.17;459.03;;;15.90;99.90;;;;;;5034622;28;20486;-73
2023/09/08 06:11:33;;;;;;;463.60;440.27;;;16.00;99.90;;;;;;5035092;28;20453;-72
2023/09/08 06:14:03;;;;;;;418.20;397.73;;;16.10;99.90;;;;;;5034798;28;20863;-72
2023/09/08 06:16:30;;;;;;;420.10;399.50;;;16.20;99.90;;;;;;5034580;28;20515;-73
2023/09/08 06:19:00;;;;;;;400.03;381.07;;;16.20;99.90;;;;;;5033450;28;20985;-72
2023/09/08 06:21:27;;;;;;;394.63;376.20;;;16.30;99.90;;;;;;5034492;28;20549;-73
2023/09/08 06:23:54;;;;;;;403.80;384.20;;;16.40;99.90;;;;;;5034582;28;20491;-72
2023/09/08 06:26:20;;;;;;;397.80;378.83;;;16.60;99.90;;;;;;5034524;28;20476;-72
2023/09/08 06:28:48;;;;;;;366.37;349.17;;;16.60;99.90;;;;;;5034172;28;20548;-73
2023/09/08 06:31:15;;;;;;;352.33;336.00;;;16.80;99.90;;;;;;5034832;28;20461;-73
2023/09/08 06:33:41;;;;;;;338.20;323.30;;;16.90;99.90;;;;;;5034656;28;20460;-73
2023/09/08 06:36:10;;;;;;;300.63;287.93;;;17.00;99.90;;;;;;5034380;28;20468;-73
2023/09/08 06:38:37;;;;;;;292.43;280.10;;;17.10;99.90;;;;;;5034106;28;20458;-73
2023/09/08 06:41:09;;;;;;;261.10;250.70;;;17.20;99.90;;;;;;5034284;28;20487;-74
2023/09/08 06:43:36;;;;;;;248.43;238.77;;;17.30;99.90;;;;;;5034317;28;20453;-73
2023/09/08 06:46:04;;;;;;;216.13;207.87;;;17.40;99.90;;;;;;5033923;28;20509;-73
2023/09/08 06:48:31;;;;;;;168.13;161.63;;;17.60;99.90;;;;;;5033868;28;20482;-72
2023/09/08 06:50:58;;;;;;;149.43;143.53;;;17.70;99.90;;;;;;5034142;28;20548;-72
2023/09/08 06:53:27;;;;;;;118.43;113.63;;;17.80;99.90;;;;;;5033990;28;20455;-72
2023/09/08 06:55:53;;;;;;;104.87;100.67;;;17.90;99.90;;;;;;5033869;28;20795;-72
2023/09/08 06:58:20;;;;;;;97.80;93.83;;;18.10;99.90;;;;;;5033653;28;20448;-72
2023/09/08 07:00:49;;;;;;;68.07;64.90;;;18.20;99.90;;;;;;5033788;28;20974;-72
2023/09/08 07:03:16;;;;;;;78.57;74.77;;;18.30;99.90;;;;;;5034109;28;20459;-73
2023/09/08 07:05:43;;;;;;;37.10;35.10;;;18.40;99.90;;;;;;5034015;28;20449;-72
2023/09/08 07:08:10;;;;;;;46.23;43.80;;;18.50;99.90;;;;;;5033629;28;20543;-73
2023/09/08 07:10:38;;;;;;;20.97;19.33;;;18.70;99.90;;;;;;5033850;28;20465;-72
2023/09/08 07:13:05;;;;;;;20.53;18.83;;;18.80;99.90;;;;;;5033751;28;20814;-72
2023/09/08 07:15:32;;;;;;;19.80;10.30;;;18.90;99.90;;;;;;5033856;28;20541;-72
2023/09/08 07:17:59;;;;;;;14.83;9.83;;;19.10;99.90;;;;;;5033315;28;20488;-72
2023/09/08 07:20:26;;;;;;;12.87;8.87;;;19.20;99.90;;;;;;5043085;28;20534;-71
2023/09/08 07:22:54;;;;;;;10.30;8.67;;;19.30;99.90;;;;;;5053051;28;20477;-72
2023/09/08 07:25:21;;;;;;;9.33;8.30;;;19.40;99.90;;;;;;5052875;28;20489;-72
2023/09/08 07:27:52;;;;;;;13.60;8.07;;;19.50;99.90;;;;;;5052547;28;20534;-73
2023/09/08 07:30:22;;;;;;;13.70;9.40;;;19.60;99.90;;;;;;5052530;28;20483;-72
2023/09/08 07:32:49;;;;;;;10.27;7.00;;;19.70;99.90;;;;;;5053125;28;20531;-72
2023/09/08 07:35:16;;;;;;;13.07;8.70;;;19.80;99.90;;;;;;5052885;28;20535;-72
2023/09/08 07:37:43;;;;;;;10.67;7.70;;;19.80;99.90;;;;;;5052530;28;20986;-72
2023/09/08 07:40:11;;;;;;;10.63;7.10;;;19.90;99.90;;;;;;5052307;28;20730;-72
2023/09/08 07:42:38;;;;;;;8.90;6.70;;;20.00;99.90;;;;;;5052538;28;20483;-71
2023/09/08 07:45:09;;;;;;;11.38;7.68;;;20.10;99.90;;;;;;5051382;28;20543;-72
2023/09/08 07:47:38;;;;;;;12.98;7.78;;;20.20;99.90;;;;;;5051052;28;20546;-72
2023/09/08 07:50:23;;;;;;;9.70;6.40;;;20.40;99.90;;;;;;5051754;28;20461;-72
2023/09/08 07:52:51;;;;;;;13.07;8.07;;;20.60;98.70;;;;;;5052109;28;20564;-72
2023/09/08 07:55:19;;;;;;;15.43;6.97;;;20.80;98.80;;;;;;5052296;28;20660;-72
2023/09/08 07:57:47;;;;;;;14.87;6.90;;;21.00;97.20;;;;;;5052361;28;20495;-72
2023/09/08 08:00:17;;;;;;;11.80;6.57;;;21.40;95.70;;;;;;5052704;28;20487;-71
2023/09/08 08:02:46;;;;;;;12.20;6.47;;;21.70;95.80;;;;;;5052602;28;20449;-72
2023/09/08 08:05:13;;;;;;;9.50;6.13;;;22.10;93.20;;;;;;5052548;28;20541;-72
2023/09/08 08:07:41;;;;;;;7.70;5.50;;;22.60;92.80;;;;;;5052522;28;20923;-72
2023/09/08 08:10:09;;;;;;;9.80;6.37;;;22.90;88.70;;;;;;5052301;28;20474;-72
2023/09/08 08:12:36;;;;;;;21.07;6.50;;;23.30;89.00;;;;;;5052476;28;20455;-72
2023/09/08 08:15:04;;;;;;;10.00;5.80;;;23.70;81.50;;;;;;5052645;28;20738;-72
2023/09/08 08:17:33;;;;;;;12.23;6.37;;;24.00;73.70;;;;;;5052209;28;20482;-72
2023/09/08 08:20:06;;;;;;;11.63;5.57;;;24.50;74.20;;;;;;5052141;28;20479;-71
2023/09/08 08:22:33;;;;;;;11.40;7.07;;;24.90;69.10;;;;;;5052435;28;20458;-73
2023/09/08 08:25:00;;;;;;;9.10;6.03;;;25.00;57.90;;;;;;5052478;28;20526;-71
2023/09/08 08:27:26;;;;;;;12.40;5.90;;;25.10;54.00;;;;;;5052302;28;21026;-73
2023/09/08 08:29:53;;;;;;;9.57;6.20;;;25.10;49.10;;;;;;5052087;28;20483;-73
2023/09/08 08:32:20;;;;;;;10.93;6.10;;;25.40;49.30;;;;;;5052108;28;20505;-72
2023/09/08 08:34:48;;;;;;;13.77;7.80;;;25.60;49.40;;;;;;5052549;28;20447;-72
2023/09/08 08:37:15;;;;;;;13.30;5.87;;;25.80;42.00;;;;;;5052283;28;20879;-73
2023/09/08 08:39:42;;;;;;;9.03;6.47;;;25.90;40.60;;;;;;5052052;28;20451;-73
2023/09/08 08:42:10;;;;;;;13.40;6.13;;;25.80;36.20;;;;;;5051692;28;20451;-72
2023/09/08 08:44:39;;;;;;;8.90;5.57;;;26.10;40.70;;;;;;5052101;28;20483;-73
2023/09/08 08:47:08;;;;;;;14.33;7.07;;;26.30;31.70;;;;;;5052157;28;20425;-73
2023/09/08 08:49:36;;;;;;;10.93;6.17;;;26.50;31.70;;;;;;5052033;28;20450;-73
2023/09/08 08:52:07;;;;;;;9.00;5.53;;;26.60;31.80;;;;;;5052034;28;20454;-73
2023/09/08 08:54:35;;;;;;;9.73;5.60;;;26.60;31.80;;;;;;5052152;28;20546;-73
2023/09/08 08:57:03;;;;;;;10.33;5.80;;;26.80;24.30;;;;;;5052124;28;20498;-70
2023/09/08 08:59:30;;;;;;;9.77;6.07;;;26.90;24.40;;;;;;5051722;28;20461;-71
2023/09/08 09:01:59;;;;;;;10.30;5.80;;;27.00;24.40;;;;;;5052064;28;21098;-72
2023/09/08 09:04:26;;;;;;;8.60;5.63;;;27.10;24.40;;;;;;5052056;28;20535;-72
2023/09/08 09:06:54;;;;;;;9.60;5.80;;;27.10;24.40;;;;;;5051914;28;20538;-72
2023/09/08 09:09:24;;;;;;;12.70;6.53;;;27.50;24.70;;;;;;5051651;28;20467;-70
2023/09/08 09:11:51;;;;;;;9.93;5.90;;;27.70;24.70;;;;;;5051780;28;20479;-71
2023/09/08 09:14:19;;;;;;;10.43;6.73;;;27.80;19.10;;;;;;5052032;28;20915;-71
2023/09/08 09:16:47;;;;;;;9.97;5.17;;;28.00;17.40;;;;;;5051857;28;20458;-72
2023/09/08 09:19:25;;;;;;;10.03;6.57;;;28.20;17.50;;;;;;5051552;28;20483;-70
2023/09/08 09:21:54;;;;;;;7.60;4.23;;;28.40;17.60;;;;;;5051767;28;20451;-71
2023/09/08 09:24:33;;;;;;;11.63;6.97;;;28.40;17.70;;;;;;5051898;28;20793;-73
2023/09/08 09:27:00;;;;;;;7.87;4.60;;;28.80;11.80;;;;;;5051626;28;20443;-72
2023/09/08 09:29:29;;;;;;;8.57;5.40;;;28.90;10.30;;;;;;5051600;28;20868;-72
2023/09/08 09:31:59;;;;;;;9.93;5.10;;;29.20;10.40;;;;;;5050717;28;20848;-71
2023/09/08 09:34:26;;;;;;;10.20;5.50;;;29.50;9.10;;;;;;5052042;28;20489;-70
2023/09/08 09:36:53;;;;;;;11.00;6.20;;;29.80;2.90;;;;;;5051908;28;20421;-68
2023/09/08 09:39:21;;;;;;;9.63;5.60;;;30.30;3.20;;;;;;5036824;28;20456;-69
2023/09/08 09:41:50;;;;;;;11.50;5.70;;;30.90;1.00;;;;;;5031904;28;20452;-70
2023/09/08 09:44:17;;;;;;;14.97;6.57;;;30.90;1.60;;;;;;5031894;28;20858;-68
2023/09/08 09:46:45;;;;;;;9.13;5.73;;;31.30;1.00;;;;;;5031698;28;20452;-69
2023/09/08 09:49:13;;;;;;;10.40;5.43;;;31.30;1.00;;;;;;5042693;28;20447;-71
2023/09/08 09:51:44;;;;;;;9.70;5.90;;;31.40;1.00;;;;;;5051849;28;20459;-71
2023/09/08 09:54:12;;;;;;;10.50;5.70;;;31.80;1.00;;;;;;5052041;28;20430;-71
2023/09/08 09:56:40;;;;;;;8.13;5.63;;;32.10;1.00;;;;;;5055079;28;20451;-71
2023/09/08 09:59:13;;;;;;;10.17;5.37;;;32.60;1.00;;;;;;5054962;28;20879;-71
2023/09/08 10:01:42;;;;;;;10.47;4.93;;;32.50;1.00;;;;;;5055051;28;20454;-71
2023/09/08 10:04:10;;;;;;;11.90;5.33;;;32.50;1.00;;;;;;5054958;28;20458;-72
2023/09/08 10:06:38;;;;;;;8.67;6.00;;;32.70;1.00;;;;;;5055059;28;20451;-71
2023/09/08 10:09:08;;;;;;;7.43;5.07;;;32.80;1.00;;;;;;5054619;28;20449;-71
2023/09/08 10:11:39;;;;;;;10.10;5.83;;;33.00;1.00;;;;;;5055302;28;20464;-71
2023/09/08 10:14:11;;;;;;;8.47;5.27;;;33.30;1.00;;;;;;5055397;28;20461;-74
2023/09/08 10:16:40;;;;;;;7.70;5.07;;;33.30;1.00;;;;;;5055525;28;20455;-71
2023/09/08 10:19:10;;;;;;;9.57;5.20;;;33.90;1.00;;;;;;5054915;28;20486;-71
2023/09/08 10:21:41;;;;;;;9.13;5.70;;;33.90;1.00;;;;;;5055224;28;20868;-71
2023/09/08 10:24:14;;;;;;;9.90;5.30;;;33.90;1.00;;;;;;5055057;28;20454;-71
2023/09/08 10:26:45;;;;;;;10.43;6.10;;;34.00;1.00;;;;;;5054997;28;20529;-71
2023/09/08 10:29:14;;;;;;;10.90;5.70;;;34.50;1.00;;;;;;5055123;28;20425;-70
2023/09/08 10:31:42;;;;;;;9.50;5.67;;;34.50;1.00;;;;;;5054883;28;20512;-71
2023/09/08 10:34:09;;;;;;;8.40;5.27;;;34.80;1.00;;;;;;5054873;28;20422;-71
2023/09/08 10:36:36;;;;;;;8.27;6.23;;;34.90;1.00;;;;;;5054743;28;20455;-72
2023/09/08 10:39:37;;;;;;;15.73;6.17;;;35.40;1.00;;;;;;5054511;28;20525;-72
2023/09/08 10:42:25;;;;;;;10.37;5.67;;;35.40;1.00;;;;;;5043717;28;20455;-72
2023/09/08 10:45:14;;;;;;;10.00;5.60;;;35.40;1.00;;;;;;5054720;28;20505;-72
2023/09/08 10:47:56;;;;;;;8.90;5.33;;;35.40;1.00;;;;;;5054720;28;20952;-72
2023/09/08 10:50:30;;;;;;;8.67;5.10;;;35.50;1.00;;;;;;5054542;28;20486;-72
2023/09/08 10:53:17;;;;;;;8.70;5.70;;;35.90;1.00;;;;;;5054403;28;20977;-72
2023/09/08 10:55:47;;;;;;;9.73;5.10;;;36.50;1.00;;;;;;5054288;28;20826;-71
2023/09/08 10:58:22;;;;;;;8.97;5.60;;;36.90;1.00;;;;;;5054379;28;20903;-72
2023/09/08 11:00:56;;;;;;;7.10;4.63;;;36.90;1.00;;;;;;5054510;28;20425;-72
2023/09/08 11:03:28;;;;;;;9.20;5.70;;;36.80;1.00;;;;;;5054562;28;20476;-73
2023/09/08 11:05:57;;;;;;;9.87;5.40;;;36.70;1.00;;;;;;5053904;28;20447;-72
2023/09/08 11:08:24;;;;;;;8.60;5.43;;;36.10;1.00;;;;;;5053907;28;20433;-72
2023/09/08 11:10:51;;;;;;;9.77;5.10;;;36.70;1.00;;;;;;5054102;28;20434;-72
2023/09/08 11:13:18;;;;;;;10.43;5.23;;;36.90;1.00;;;;;;5054414;28;20458;-73
2023/09/08 11:15:45;;;;;;;8.27;5.80;;;37.30;1.00;;;;;;5054261;28;20474;-72
2023/09/08 11:18:14;;;;;;;7.90;5.27;;;37.10;1.00;;;;;;5053927;28;20454;-72
2023/09/08 11:20:40;;;;;;;8.10;5.50;;;36.90;1.00;;;;;;5054092;28;20452;-73
2023/09/08 11:23:07;;;;;;;8.07;5.17;;;35.80;1.00;;;;;;5054076;28;20426;-72
2023/09/08 11:25:35;;;;;;;11.20;5.63;;;36.40;1.00;;;;;;5053716;28;20421;-72
2023/09/08 11:28:02;;;;;;;11.17;5.50;;;37.30;1.00;;;;;;5053510;28;20448;-72
2023/09/08 11:30:30;;;;;;;7.00;4.37;;;37.70;1.00;;;;;;5053612;28;20496;-73
2023/09/08 11:32:58;;;;;;;9.70;5.73;;;38.30;1.00;;;;;;5042253;28;20516;-72
2023/09/08 11:35:28;;;;;;;11.27;5.90;;;39.10;1.00;;;;;;5044310;28;20414;-72
2023/09/08 11:38:01;;;;;;;11.37;5.10;;;39.20;1.00;;;;;;5038781;28;20449;-71
2023/09/08 11:40:28;;;;;;;10.40;5.40;;;39.50;1.00;;;;;;5053234;28;20446;-71
2023/09/08 11:42:55;;;;;;;7.90;4.83;;;40.10;1.00;;;;;;5053614;28;20468;-72
2023/09/08 11:45:23;;;;;;;7.87;4.70;;;40.00;1.00;;;;;;5053677;28;20516;-72
2023/09/08 11:47:50;;;;;;;8.90;4.73;;;39.80;1.00;;;;;;5053405;28;20429;-72
2023/09/08 11:50:19;;;;;;;7.63;5.40;;;39.70;1.00;;;;;;5053325;28;20558;-72
2023/09/08 11:52:49;;;;;;;10.07;5.20;;;40.00;1.00;;;;;;5053528;28;20429;-73
2023/09/08 11:55:17;;;;;;;8.80;5.33;;;40.00;1.00;;;;;;5053471;28;20504;-73
2023/09/08 11:57:48;;;;;;;10.13;5.00;;;40.10;1.00;;;;;;5050819;28;20476;-73
2023/09/08 12:00:17;;;;;;;10.90;5.23;;;39.00;1.00;;;;;;5052492;28;20538;-73
2023/09/08 12:02:45;;;;;;;7.73;4.73;;;39.70;1.00;;;;;;5052249;28;20520;-73
2023/09/08 12:05:20;;;;;;;9.17;4.77;;;39.80;1.00;;;;;;5052246;28;20516;-73
2023/09/08 12:07:49;;;;;;;9.43;5.50;;;39.50;1.00;;;;;;5041559;28;20530;-73
2023/09/08 12:10:17;;;;;;;8.00;4.80;;;38.80;1.00;;;;;;5032296;28;20937;-74
2023/09/08 12:12:45;;;;;;;8.87;5.57;;;39.20;1.00;;;;;;5032311;28;21022;-73
2023/09/08 12:15:12;;;;;;;7.80;5.50;;;38.90;1.00;;;;;;5032445;28;20426;-73
2023/09/08 12:17:50;;;;;;;7.40;4.90;;;39.60;1.00;;;;;;5031541;28;20433;-73
2023/09/08 12:20:18;;;;;;;11.57;4.83;;;39.40;1.00;;;;;;5032594;28;20457;-76
2023/09/08 12:22:52;;;;;;;9.70;5.90;;;39.10;1.00;;;;;;5032368;28;20513;-71
2023/09/08 12:25:20;;;;;;;7.50;5.47;;;39.50;1.00;;;;;;5032031;28;20519;-71
2023/09/08 12:27:50;;;;;;;8.97;5.63;;;38.90;1.00;;;;;;5031782;28;20430;-71
2023/09/08 12:30:22;;;;;;;9.37;4.73;;;39.40;1.00;;;;;;5032196;28;20452;-73
2023/09/08 12:32:50;;;;;;;8.70;5.80;;;39.00;1.00;;;;;;5032811;28;20850;-71